Time;durP1;ratioP1;P1;durP2;ratioP2;P2;SDS_P1;SDS_P2;PMS_P1;PMS_P2;Temp;Humidity;BMP_temperature;BMP_pressure;BME280_temperature;BME280_humidity;BME280_pressure;Samples;Min_cycle;Max_cycle;Signal;HPM_P1;HPM_P2
2022/08/17 00:00:52;;;;;;;8.10;6.80;;;;;;;;;;108308;1302;23067;-26
2022/08/17 00:03:20;;;;;;;10.80;8.20;;;;;;;;;;108327;1301;23411;-26
2022/08/17 00:05:49;;;;;;;13.00;10.10;;;;;;;;;;107541;1308;1003051;-30
2022/08/17 00:08:15;;;;;;;16.90;12.60;;;;;;;;;;108298;1301;22584;-26
2022/08/17 00:10:41;;;;;;;24.90;16.10;;;;;;;;;;108303;1302;23158;-26
2022/08/17 00:13:08;;;;;;;25.70;20.30;;;;;;;;;;108248;1308;22524;-30
2022/08/17 00:15:33;;;;;;;13.40;11.90;;;;;;;;;;108266;1302;22582;-30
2022/08/17 00:17:59;;;;;;;14.20;10.90;;;;;;;;;;108314;1302;22416;-24
2022/08/17 00:20:24;;;;;;;21.00;10.70;;;;;;;;;;107553;1302;1002559;-24
2022/08/17 00:22:50;;;;;;;19.40;13.80;;;;;;;;;;108099;1302;22457;-25
2022/08/17 00:25:16;;;;;;;15.00;11.10;;;;;;;;;;108097;1302;23274;-28
2022/08/17 00:27:41;;;;;;;18.10;9.70;;;;;;;;;;108168;1302;23193;-28
2022/08/17 00:30:07;;;;;;;8.40;7.10;;;;;;;;;;108297;1301;22575;-28
2022/08/17 00:32:35;;;;;;;11.80;7.20;;;;;;;;;;108296;1302;22541;-28
2022/08/17 00:35:04;;;;;;;10.50;6.60;;;;;;;;;;108316;1302;23086;-28
2022/08/17 00:37:29;;;;;;;10.80;6.40;;;;;;;;;;108336;1302;22546;-28
2022/08/17 00:39:55;;;;;;;9.10;6.60;;;;;;;;;;108312;1302;22591;-28
2022/08/17 00:42:20;;;;;;;9.60;8.00;;;;;;;;;;108190;1308;22548;-24
2022/08/17 00:44:46;;;;;;;10.00;8.20;;;;;;;;;;108319;1301;22604;-26
2022/08/17 00:47:11;;;;;;;14.40;7.90;;;;;;;;;;108232;1305;25298;-30
2022/08/17 00:49:37;;;;;;;10.60;8.70;;;;;;;;;;108262;1301;22496;-30
2022/08/17 00:52:07;;;;;;;12.20;8.80;;;;;;;;;;107947;1302;23254;-25
2022/08/17 00:54:34;;;;;;;12.50;9.80;;;;;;;;;;108292;1301;22541;-25
2022/08/17 00:57:03;;;;;;;11.80;8.40;;;;;;;;;;108312;1302;23240;-29
2022/08/17 00:59:30;;;;;;;9.70;7.90;;;;;;;;;;108149;1306;23219;-29
2022/08/17 01:01:55;;;;;;;15.00;9.20;;;;;;;;;;108160;1305;23307;-29
2022/08/17 01:04:21;;;;;;;9.70;7.90;;;;;;;;;;108312;1294;22552;-29
2022/08/17 01:06:48;;;;;;;9.20;8.00;;;;;;;;;;108306;1301;22600;-29
2022/08/17 01:09:14;;;;;;;7.80;7.10;;;;;;;;;;108281;1302;22522;-29
2022/08/17 01:11:40;;;;;;;12.70;10.80;;;;;;;;;;108271;1301;22457;-25
2022/08/17 01:14:07;;;;;;;26.20;14.30;;;;;;;;;;108282;1302;23223;-29
2022/08/17 01:16:33;;;;;;;34.20;30.30;;;;;;;;;;108243;1309;22942;-25
2022/08/17 01:19:00;;;;;;;21.10;18.00;;;;;;;;;;108131;1308;23200;-29
2022/08/17 01:21:29;;;;;;;15.80;13.40;;;;;;;;;;108261;1302;22666;-29
2022/08/17 01:23:54;;;;;;;21.60;18.20;;;;;;;;;;108313;1301;23278;-25
2022/08/17 01:26:20;;;;;;;18.70;16.80;;;;;;;;;;108270;1302;22634;-25
2022/08/17 01:28:45;;;;;;;18.80;15.20;;;;;;;;;;108205;1308;23298;-29
2022/08/17 01:31:11;;;;;;;16.40;13.90;;;;;;;;;;108276;1302;23189;-29
2022/08/17 01:33:36;;;;;;;15.10;13.40;;;;;;;;;;108290;1302;23281;-29
2022/08/17 01:36:05;;;;;;;27.20;17.90;;;;;;;;;;108256;1301;22555;-26
2022/08/17 01:38:30;;;;;;;12.30;10.40;;;;;;;;;;108262;1302;22092;-29
2022/08/17 01:40:59;;;;;;;10.70;9.20;;;;;;;;;;108311;1302;22583;-25
2022/08/17 01:43:27;;;;;;;10.20;8.40;;;;;;;;;;108308;1302;22578;-25
2022/08/17 01:45:53;;;;;;;10.10;7.20;;;;;;;;;;108283;1302;23442;-25
2022/08/17 01:48:18;;;;;;;9.30;7.50;;;;;;;;;;108290;1302;23345;-24
2022/08/17 01:50:45;;;;;;;6.90;6.30;;;;;;;;;;108258;1302;23017;-28
2022/08/17 01:53:13;;;;;;;13.50;8.80;;;;;;;;;;108237;1302;24107;-28
2022/08/17 01:55:39;;;;;;;15.30;8.90;;;;;;;;;;108008;1302;22553;-28
2022/08/17 01:58:08;;;;;;;14.50;8.00;;;;;;;;;;108282;1305;22894;-28
2022/08/17 02:00:35;;;;;;;10.30;6.20;;;;;;;;;;108274;1302;22440;-25
2022/08/17 02:03:00;;;;;;;11.00;6.60;;;;;;;;;;108180;1301;22517;-24
2022/08/17 02:05:26;;;;;;;7.20;6.40;;;;;;;;;;107632;1307;23221;-28
2022/08/17 02:07:51;;;;;;;6.90;5.80;;;;;;;;;;108205;1302;22456;-28
2022/08/17 02:10:17;;;;;;;8.20;5.30;;;;;;;;;;108190;1302;23416;-28
2022/08/17 02:12:42;;;;;;;5.30;4.50;;;;;;;;;;108236;1309;22615;-28
2022/08/17 02:15:08;;;;;;;5.90;4.80;;;;;;;;;;108311;1302;22403;-24
2022/08/17 02:17:34;;;;;;;7.30;6.30;;;;;;;;;;108204;1302;22520;-25
2022/08/17 02:20:00;;;;;;;6.70;6.00;;;;;;;;;;108260;1309;22579;-28
2022/08/17 02:22:25;;;;;;;13.70;7.90;;;;;;;;;;108288;1302;23364;-28
2022/08/17 02:24:51;;;;;;;7.10;6.40;;;;;;;;;;108306;1289;23388;-28
2022/08/17 02:27:17;;;;;;;12.80;7.10;;;;;;;;;;108277;1302;22878;-24
2022/08/17 02:29:43;;;;;;;8.20;6.20;;;;;;;;;;108266;1308;23282;-29
2022/08/17 02:32:12;;;;;;;7.70;6.30;;;;;;;;;;108193;1302;23624;-28
2022/08/17 02:34:37;;;;;;;10.10;8.10;;;;;;;;;;108281;1308;22543;-28
2022/08/17 02:37:03;;;;;;;10.80;7.40;;;;;;;;;;108292;1302;23241;-24
2022/08/17 02:39:29;;;;;;;8.00;6.80;;;;;;;;;;108269;1302;23144;-28
2022/08/17 02:41:57;;;;;;;19.90;8.40;;;;;;;;;;108264;1302;23390;-28
2022/08/17 02:44:23;;;;;;;8.20;6.70;;;;;;;;;;108305;1306;22486;-28
2022/08/17 02:46:49;;;;;;;7.40;6.70;;;;;;;;;;108284;1308;22594;-28
2022/08/17 02:49:14;;;;;;;8.70;6.80;;;;;;;;;;107955;1302;23421;-28
2022/08/17 02:51:40;;;;;;;8.10;6.30;;;;;;;;;;108338;1301;23189;-28
2022/08/17 02:54:05;;;;;;;7.70;6.50;;;;;;;;;;108356;1302;23249;-24
2022/08/17 02:56:31;;;;;;;6.60;5.50;;;;;;;;;;108323;1301;23240;-28
2022/08/17 02:58:57;;;;;;;8.30;7.20;;;;;;;;;;108333;1301;23243;-28
2022/08/17 03:01:23;;;;;;;11.00;9.10;;;;;;;;;;107661;1305;23295;-28
2022/08/17 03:03:48;;;;;;;13.10;7.90;;;;;;;;;;108297;1302;23359;-28
2022/08/17 03:06:14;;;;;;;7.40;6.10;;;;;;;;;;108269;1301;22466;-25
2022/08/17 03:08:39;;;;;;;10.80;8.10;;;;;;;;;;108240;1302;22553;-24
2022/08/17 03:11:05;;;;;;;15.10;8.20;;;;;;;;;;108285;1301;23112;-25
2022/08/17 03:13:30;;;;;;;13.10;9.00;;;;;;;;;;108306;1301;23310;-28
2022/08/17 03:15:56;;;;;;;8.20;7.10;;;;;;;;;;108284;1301;22121;-28
2022/08/17 03:18:22;;;;;;;8.00;7.20;;;;;;;;;;108288;1302;22547;-24
2022/08/17 03:20:48;;;;;;;17.20;8.50;;;;;;;;;;108297;1308;22456;-24
2022/08/17 03:23:14;;;;;;;16.20;8.20;;;;;;;;;;108318;1302;23217;-24
2022/08/17 03:25:41;;;;;;;8.60;7.10;;;;;;;;;;108161;1301;22540;-26
2022/08/17 03:28:07;;;;;;;9.90;7.20;;;;;;;;;;108305;1308;22545;-28
2022/08/17 03:30:33;;;;;;;9.10;7.20;;;;;;;;;;108268;1302;22273;-28
2022/08/17 03:32:59;;;;;;;11.80;10.60;;;;;;;;;;108275;1301;25315;-26
2022/08/17 03:35:25;;;;;;;9.80;8.90;;;;;;;;;;108295;1308;22536;-27
2022/08/17 03:37:51;;;;;;;15.70;8.00;;;;;;;;;;108329;1301;23213;-24
2022/08/17 03:40:17;;;;;;;8.10;7.00;;;;;;;;;;108343;1302;22571;-24
2022/08/17 03:42:43;;;;;;;9.00;7.10;;;;;;;;;;108210;1308;23285;-23
2022/08/17 03:45:10;;;;;;;10.40;8.60;;;;;;;;;;108276;1301;22404;-24
2022/08/17 03:57:32;;;;;;;10.20;8.70;;;;;;;;;;108275;1302;22538;-24
2022/08/17 03:59:58;;;;;;;14.00;10.90;;;;;;;;;;108202;1305;22517;-24
2022/08/17 04:02:25;;;;;;;14.00;9.80;;;;;;;;;;108247;1302;23154;-28
2022/08/17 04:04:51;;;;;;;13.40;10.50;;;;;;;;;;108316;1302;23183;-24
2022/08/17 04:07:18;;;;;;;15.20;9.60;;;;;;;;;;108318;1301;23189;-28
2022/08/17 04:09:43;;;;;;;11.60;10.30;;;;;;;;;;108310;1302;23051;-24
2022/08/17 04:12:09;;;;;;;12.60;9.90;;;;;;;;;;108224;1301;22524;-30
2022/08/17 04:14:37;;;;;;;14.80;9.70;;;;;;;;;;108098;1308;23166;-26
2022/08/17 04:17:03;;;;;;;11.90;10.30;;;;;;;;;;108005;1308;22504;-26
2022/08/17 04:19:29;;;;;;;13.20;9.80;;;;;;;;;;108188;1302;23255;-27
2022/08/17 04:21:56;;;;;;;12.20;10.30;;;;;;;;;;108272;1302;22569;-28
2022/08/17 04:24:22;;;;;;;13.40;9.70;;;;;;;;;;108351;1301;23302;-28
2022/08/17 04:26:48;;;;;;;9.20;8.30;;;;;;;;;;108296;1308;22560;-28
2022/08/17 04:29:13;;;;;;;10.90;8.70;;;;;;;;;;108291;1302;22393;-30
2022/08/17 04:31:38;;;;;;;10.00;9.00;;;;;;;;;;108265;1302;22396;-30
2022/08/17 04:34:04;;;;;;;19.20;10.70;;;;;;;;;;108300;1301;22540;-30
2022/08/17 04:36:30;;;;;;;10.30;9.20;;;;;;;;;;108280;1302;22402;-30
2022/08/17 04:38:55;;;;;;;13.30;9.70;;;;;;;;;;108114;1302;23179;-26
2022/08/17 04:43:53;;;;;;;20.00;11.60;;;;;;;;;;108258;1308;22462;-26
2022/08/17 04:46:20;;;;;;;17.40;10.60;;;;;;;;;;108234;1302;22536;-30
2022/08/17 04:48:51;;;;;;;11.10;9.60;;;;;;;;;;107877;1301;23308;-25
2022/08/17 04:51:19;;;;;;;13.20;10.30;;;;;;;;;;108255;1301;23251;-29
2022/08/17 04:53:45;;;;;;;14.50;10.20;;;;;;;;;;108245;1302;22621;-25
2022/08/17 04:56:11;;;;;;;13.90;8.80;;;;;;;;;;107995;1302;22545;-28
2022/08/17 04:58:37;;;;;;;10.90;8.80;;;;;;;;;;108271;1301;23408;-29
2022/08/17 05:01:03;;;;;;;13.50;8.60;;;;;;;;;;108258;1302;22537;-25
2022/08/17 05:03:29;;;;;;;10.60;9.10;;;;;;;;;;108207;1301;22514;-29
2022/08/17 05:05:54;;;;;;;10.40;9.10;;;;;;;;;;108224;1302;23337;-26
2022/08/17 05:08:20;;;;;;;13.50;10.90;;;;;;;;;;108293;1302;23350;-25
2022/08/17 05:10:46;;;;;;;14.70;11.70;;;;;;;;;;108243;1301;22528;-26
2022/08/17 05:13:14;;;;;;;20.40;11.40;;;;;;;;;;108088;1301;22547;-29
2022/08/17 05:15:40;;;;;;;14.30;9.20;;;;;;;;;;108284;1301;22784;-29
2022/08/17 05:18:06;;;;;;;10.50;9.50;;;;;;;;;;108251;1301;22459;-29
2022/08/17 05:20:32;;;;;;;9.40;8.10;;;;;;;;;;108171;1302;25272;-25
2022/08/17 05:22:58;;;;;;;9.90;9.00;;;;;;;;;;108228;1308;22527;-29
2022/08/17 05:25:25;;;;;;;11.30;9.90;;;;;;;;;;108272;1302;23379;-29
2022/08/17 05:27:51;;;;;;;14.20;12.40;;;;;;;;;;108265;1302;23283;-29
2022/08/17 05:30:17;;;;;;;15.70;9.90;;;;;;;;;;107256;1308;1002225;-29
2022/08/17 05:32:46;;;;;;;11.40;10.00;;;;;;;;;;108224;1302;22462;-29
2022/08/17 05:35:11;;;;;;;11.50;10.20;;;;;;;;;;108275;1302;22530;-29
2022/08/17 05:37:38;;;;;;;13.00;11.70;;;;;;;;;;108269;1301;22274;-25
2022/08/17 05:40:04;;;;;;;13.60;11.00;;;;;;;;;;108257;1302;22214;-29
2022/08/17 05:42:30;;;;;;;10.30;9.10;;;;;;;;;;108289;1301;22536;-25
2022/08/17 05:44:56;;;;;;;10.30;9.30;;;;;;;;;;108294;1302;22408;-29
2022/08/17 05:47:22;;;;;;;14.30;11.90;;;;;;;;;;108259;1301;22569;-25
2022/08/17 05:49:48;;;;;;;15.80;11.70;;;;;;;;;;108137;1303;23773;-28
2022/08/17 05:52:16;;;;;;;11.10;9.00;;;;;;;;;;108048;1308;23289;-27
2022/08/17 05:55:01;;;;;;;11.10;9.70;;;;;;;;;;108165;1302;23133;-28
2022/08/17 05:57:30;;;;;;;16.80;10.00;;;;;;;;;;107491;1301;1002379;-28
2022/08/17 06:00:00;;;;;;;16.80;10.70;;;;;;;;;;108160;1302;23193;-25
2022/08/17 06:02:25;;;;;;;12.40;10.70;;;;;;;;;;108280;1302;22467;-25
2022/08/17 06:04:51;;;;;;;11.20;8.50;;;;;;;;;;108248;1302;22503;-25
2022/08/17 06:07:36;;;;;;;11.30;9.80;;;;;;;;;;108262;1302;22462;-29
2022/08/17 06:10:04;;;;;;;13.40;10.40;;;;;;;;;;107490;1302;1002383;-29
2022/08/17 06:12:33;;;;;;;11.30;10.30;;;;;;;;;;108295;1301;22532;-29
2022/08/17 06:15:06;;;;;;;13.80;10.70;;;;;;;;;;108301;1302;22541;-29
2022/08/17 06:17:31;;;;;;;15.10;10.50;;;;;;;;;;108121;1302;22564;-28
2022/08/17 06:19:59;;;;;;;11.90;10.40;;;;;;;;;;108277;1301;23227;-25
2022/08/17 06:22:26;;;;;;;12.40;11.20;;;;;;;;;;107745;1302;535019;-26
2022/08/17 06:24:55;;;;;;;14.30;9.40;;;;;;;;;;108267;1302;22505;-29
2022/08/17 06:27:23;;;;;;;10.30;9.40;;;;;;;;;;108282;1302;22445;-25
2022/08/17 06:29:52;;;;;;;11.60;10.10;;;;;;;;;;108185;1302;23220;-25
2022/08/17 06:32:17;;;;;;;11.00;9.80;;;;;;;;;;108233;1302;23095;-25
2022/08/17 06:34:44;;;;;;;11.20;10.00;;;;;;;;;;108304;1301;22939;-29
2022/08/17 06:37:14;;;;;;;10.30;9.50;;;;;;;;;;108294;1301;22462;-25
2022/08/17 06:39:44;;;;;;;9.80;8.80;;;;;;;;;;108246;1308;22572;-29
2022/08/17 06:42:31;;;;;;;13.50;9.40;;;;;;;;;;108311;1289;22632;-28
2022/08/17 06:45:02;;;;;;;9.00;8.10;;;;;;;;;;108338;1301;22345;-29
2022/08/17 06:47:30;;;;;;;8.10;7.40;;;;;;;;;;108235;1301;22534;-29
2022/08/17 06:49:56;;;;;;;16.70;8.80;;;;;;;;;;107705;1302;22064;-28
2022/08/17 06:52:23;;;;;;;9.80;8.60;;;;;;;;;;108120;1302;23164;-24
2022/08/17 06:54:52;;;;;;;8.30;7.50;;;;;;;;;;108176;1303;22665;-28
2022/08/17 06:57:18;;;;;;;10.00;8.50;;;;;;;;;;108245;1305;22729;-25
2022/08/17 06:59:46;;;;;;;14.10;9.20;;;;;;;;;;108295;1301;22456;-24
2022/08/17 07:02:11;;;;;;;13.40;8.50;;;;;;;;;;108291;1301;22546;-25
2022/08/17 07:04:37;;;;;;;7.20;6.60;;;;;;;;;;108237;1301;22560;-28
2022/08/17 07:08:00;;;;;;;9.20;8.10;;;;;;;;;;107822;1302;23232;-24
2022/08/17 07:09:51;;;;;;;9.80;8.80;;;;;;;;;;108170;1301;22559;-28
2022/08/17 07:12:18;;;;;;;10.10;9.20;;;;;;;;;;108260;1302;22549;-28
2022/08/17 07:14:46;;;;;;;8.90;8.00;;;;;;;;;;108011;1302;23234;-25
2022/08/17 07:17:13;;;;;;;7.40;6.70;;;;;;;;;;108198;1308;22547;-24
2022/08/17 07:19:39;;;;;;;9.40;8.50;;;;;;;;;;108272;1302;23124;-25
2022/08/17 07:22:09;;;;;;;8.10;6.80;;;;;;;;;;108273;1302;23276;-25
2022/08/17 07:24:42;;;;;;;6.80;6.10;;;;;;;;;;108093;1308;22558;-28
2022/08/17 07:27:07;;;;;;;;;;;;;;;;;;108292;1308;22548;-25
2022/08/17 07:29:36;;;;;;;8.20;6.80;;;;;;;;;;108282;1301;22535;-28
2022/08/17 07:32:02;;;;;;;6.70;5.90;;;;;;;;;;107935;1309;23193;-29
2022/08/17 07:34:28;;;;;;;7.10;5.90;;;;;;;;;;108223;1302;23160;-25
2022/08/17 07:36:57;;;;;;;8.30;7.30;;;;;;;;;;108195;1303;22559;-29
2022/08/17 07:39:25;;;;;;;8.80;8.00;;;;;;;;;;108279;1308;23389;-25
2022/08/17 07:41:50;;;;;;;9.00;7.40;;;;;;;;;;108193;1302;22433;-29
2022/08/17 07:44:16;;;;;;;8.50;7.80;;;;;;;;;;108304;1302;23230;-25
2022/08/17 07:49:17;;;;;;;9.80;8.40;;;;;;;;;;108191;1302;23306;-29
2022/08/17 07:51:44;;;;;;;8.10;6.80;;;;;;;;;;108286;1308;22546;-29
2022/08/17 07:54:13;;;;;;;9.10;8.00;;;;;;;;;;108152;1304;23304;-25
2022/08/17 07:56:42;;;;;;;7.70;7.00;;;;;;;;;;107634;1308;23188;-25
2022/08/17 07:59:13;;;;;;;9.40;8.60;;;;;;;;;;108200;1308;22531;-29
2022/08/17 08:01:39;;;;;;;6.50;5.50;;;;;;;;;;108262;1302;22406;-25
2022/08/17 08:04:08;;;;;;;13.10;6.90;;;;;;;;;;108070;1303;25216;-25
2022/08/17 08:06:36;;;;;;;8.80;7.00;;;;;;;;;;108142;1302;22535;-26
2022/08/17 08:09:02;;;;;;;8.60;7.30;;;;;;;;;;108287;1301;25267;-29
2022/08/17 08:11:29;;;;;;;8.80;7.20;;;;;;;;;;108279;1302;22517;-26
2022/08/17 08:13:57;;;;;;;10.00;7.10;;;;;;;;;;108218;1308;22528;-25
2022/08/17 08:16:24;;;;;;;12.00;6.80;;;;;;;;;;107994;1285;22988;-29
2022/08/17 08:18:51;;;;;;;6.80;6.20;;;;;;;;;;108090;1302;23236;-29
2022/08/17 08:21:20;;;;;;;6.40;4.40;;;;;;;;;;108283;1301;23253;-25
2022/08/17 08:23:50;;;;;;;9.90;6.00;;;;;;;;;;108114;1302;23369;-25
2022/08/17 08:26:19;;;;;;;6.00;5.50;;;;;;;;;;108258;1308;22913;-27
2022/08/17 08:28:51;;;;;;;4.90;4.40;;;;;;;;;;108244;1302;23675;-23
2022/08/17 08:31:23;;;;;;;6.70;6.10;;;;;;;;;;108245;1294;23127;-27
2022/08/17 08:33:53;;;;;;;6.70;5.70;;;;;;;;;;108214;1301;22523;-28
2022/08/17 08:36:23;;;;;;;8.90;7.30;;;;;;;;;;108145;1303;23151;-27
2022/08/17 08:38:53;;;;;;;6.90;5.40;;;;;;;;;;108282;1302;23102;-23
2022/08/17 08:41:22;;;;;;;10.10;5.90;;;;;;;;;;108003;1308;22530;-23
2022/08/17 08:43:53;;;;;;;7.30;5.40;;;;;;;;;;108266;1308;23235;-23
2022/08/17 08:46:23;;;;;;;8.60;5.30;;;;;;;;;;108267;1302;23355;-23
2022/08/17 08:48:53;;;;;;;14.90;6.70;;;;;;;;;;108304;1301;22549;-24
2022/08/17 08:51:23;;;;;;;8.80;6.90;;;;;;;;;;108232;1301;25396;-23
2022/08/17 08:53:53;;;;;;;7.80;7.10;;;;;;;;;;108205;1309;23608;-27
2022/08/17 08:56:27;;;;;;;6.90;6.40;;;;;;;;;;108335;1301;22574;-27
2022/08/17 08:58:58;;;;;;;7.40;6.10;;;;;;;;;;108254;1302;22421;-27
2022/08/17 09:01:26;;;;;;;4.30;4.00;;;;;;;;;;108039;1301;25239;-29
2022/08/17 09:03:55;;;;;;;4.60;4.20;;;;;;;;;;108292;1302;22592;-24
2022/08/17 09:06:24;;;;;;;4.70;4.30;;;;;;;;;;108331;1302;23325;-27
2022/08/17 09:08:54;;;;;;;8.40;4.70;;;;;;;;;;108282;1302;22738;-27
2022/08/17 09:11:26;;;;;;;7.10;4.80;;;;;;;;;;108263;1302;25117;-27
2022/08/17 09:13:55;;;;;;;5.20;4.80;;;;;;;;;;108262;1302;23118;-27
2022/08/17 09:16:22;;;;;;;6.40;5.90;;;;;;;;;;108264;1302;22139;-23
2022/08/17 09:18:50;;;;;;;6.20;4.80;;;;;;;;;;108209;1302;22515;-23
2022/08/17 09:21:18;;;;;;;8.20;5.40;;;;;;;;;;108109;1302;23273;-23
2022/08/17 09:23:44;;;;;;;6.20;5.70;;;;;;;;;;108273;1302;23250;-27
2022/08/17 09:26:10;;;;;;;6.80;5.30;;;;;;;;;;108253;1302;22642;-23
2022/08/17 09:28:36;;;;;;;4.70;4.00;;;;;;;;;;108248;1308;22387;-23
2022/08/17 09:31:05;;;;;;;5.10;4.50;;;;;;;;;;108275;1302;22540;-27
2022/08/17 09:33:32;;;;;;;5.80;5.20;;;;;;;;;;108110;1302;22547;-27
2022/08/17 09:36:00;;;;;;;7.00;5.30;;;;;;;;;;108263;1302;23074;-27
2022/08/17 09:38:26;;;;;;;6.20;4.70;;;;;;;;;;108321;1302;22447;-23
2022/08/17 09:40:54;;;;;;;7.10;6.20;;;;;;;;;;108295;1301;23172;-28
2022/08/17 09:43:19;;;;;;;5.00;4.60;;;;;;;;;;108263;1302;22680;-23
2022/08/17 09:45:49;;;;;;;7.20;5.50;;;;;;;;;;108143;1309;23241;-27
2022/08/17 09:48:18;;;;;;;6.70;4.30;;;;;;;;;;108242;1302;23299;-23
2022/08/17 09:50:48;;;;;;;6.40;5.90;;;;;;;;;;108171;1301;23191;-27
2022/08/17 09:53:14;;;;;;;4.50;4.10;;;;;;;;;;108237;1302;22552;-28
2022/08/17 09:55:43;;;;;;;5.20;4.60;;;;;;;;;;108268;1286;22543;-24
2022/08/17 09:58:12;;;;;;;6.70;6.10;;;;;;;;;;108249;1301;23184;-28
2022/08/17 10:00:40;;;;;;;4.70;4.30;;;;;;;;;;108259;1302;22627;-28
2022/08/17 10:03:09;;;;;;;5.70;4.90;;;;;;;;;;108222;1309;22543;-28
2022/08/17 10:05:38;;;;;;;5.40;4.80;;;;;;;;;;108251;1309;22544;-28
2022/08/17 10:08:08;;;;;;;4.10;3.80;;;;;;;;;;108213;1309;24814;-23
2022/08/17 10:10:36;;;;;;;3.80;3.40;;;;;;;;;;108298;1301;23192;-28
2022/08/17 10:13:02;;;;;;;3.80;3.60;;;;;;;;;;108227;1302;22463;-24
2022/08/17 10:15:28;;;;;;;9.30;5.10;;;;;;;;;;107866;1302;23227;-28
2022/08/17 10:18:02;;;;;;;4.80;4.40;;;;;;;;;;108226;1309;22396;-28
2022/08/17 10:20:29;;;;;;;7.20;4.80;;;;;;;;;;108248;1302;22529;-24
2022/08/17 10:27:55;;;;;;;7.40;4.90;;;;;;;;;;108308;1302;22338;-28
2022/08/17 10:30:22;;;;;;;4.00;3.60;;;;;;;;;;107844;1302;23228;-24
2022/08/17 10:32:49;;;;;;;4.90;4.20;;;;;;;;;;108270;1301;22534;-28
2022/08/17 10:35:15;;;;;;;6.10;4.50;;;;;;;;;;108284;1302;23344;-28
2022/08/17 10:37:45;;;;;;;3.00;2.60;;;;;;;;;;108265;1302;22844;-24
2022/08/17 10:40:14;;;;;;;17.60;3.50;;;;;;;;;;108295;1302;23325;-28
2022/08/17 10:42:52;;;;;;;9.70;2.80;;;;;;;;;;108272;1302;22396;-28
2022/08/17 10:45:25;;;;;;;3.80;3.40;;;;;;;;;;108312;1295;22562;-24
2022/08/17 10:47:52;;;;;;;5.10;4.60;;;;;;;;;;108281;1302;22578;-24
2022/08/17 10:50:38;;;;;;;3.90;3.60;;;;;;;;;;108323;1302;22646;-28
2022/08/17 10:53:03;;;;;;;3.80;3.30;;;;;;;;;;108224;1309;22523;-28
2022/08/17 10:55:29;;;;;;;5.20;3.20;;;;;;;;;;108273;1309;22537;-28
2022/08/17 10:58:14;;;;;;;4.00;3.20;;;;;;;;;;108284;1302;22455;-24
2022/08/17 11:00:54;;;;;;;6.50;3.60;;;;;;;;;;108312;1302;23358;-28
2022/08/17 11:03:21;;;;;;;6.30;4.00;;;;;;;;;;108264;1301;22524;-28
2022/08/17 11:05:49;;;;;;;4.20;3.80;;;;;;;;;;108313;1302;22471;-28
2022/08/17 11:08:18;;;;;;;3.70;3.50;;;;;;;;;;108099;1301;22535;-24
2022/08/17 11:10:44;;;;;;;5.60;3.80;;;;;;;;;;108317;1302;22643;-24
2022/08/17 11:13:15;;;;;;;4.50;4.20;;;;;;;;;;108309;1302;23291;-28
2022/08/17 11:15:44;;;;;;;2.60;2.40;;;;;;;;;;108256;1301;22542;-28
2022/08/17 11:18:13;;;;;;;4.00;3.60;;;;;;;;;;108254;1302;22526;-24
2022/08/17 11:20:47;;;;;;;5.80;3.70;;;;;;;;;;108291;1302;23326;-24
2022/08/17 11:23:13;;;;;;;4.10;3.70;;;;;;;;;;108320;1302;23283;-25
2022/08/17 11:25:40;;;;;;;4.90;3.60;;;;;;;;;;108094;1303;23047;-28
2022/08/17 11:28:07;;;;;;;4.60;4.10;;;;;;;;;;108320;1301;23082;-24
2022/08/17 11:30:37;;;;;;;3.30;2.90;;;;;;;;;;108161;1302;22433;-28
2022/08/17 11:33:23;;;;;;;4.70;3.00;;;;;;;;;;108305;1305;23168;-28
2022/08/17 11:35:50;;;;;;;4.30;3.90;;;;;;;;;;108355;1301;22542;-28
2022/08/17 11:38:18;;;;;;;4.80;4.50;;;;;;;;;;108286;1302;23317;-24
2022/08/17 11:40:49;;;;;;;4.30;3.90;;;;;;;;;;108193;1301;23344;-28
2022/08/17 11:43:22;;;;;;;5.80;4.30;;;;;;;;;;108166;1302;25276;-28
2022/08/17 11:45:51;;;;;;;4.50;4.10;;;;;;;;;;108178;1303;22351;-24
2022/08/17 11:53:25;;;;;;;5.40;2.80;;;;;;;;;;108303;1295;23370;-28
2022/08/17 11:55:50;;;;;;;3.00;2.70;;;;;;;;;;108281;1302;22940;-24
2022/08/17 11:58:36;;;;;;;17.30;4.30;;;;;;;;;;108202;1303;23236;-24
2022/08/17 12:01:03;;;;;;;8.20;3.60;;;;;;;;;;108192;1302;23209;-28
2022/08/17 12:03:30;;;;;;;3.10;2.70;;;;;;;;;;108279;1302;22417;-24
2022/08/17 12:06:05;;;;;;;4.20;3.40;;;;;;;;;;108184;1302;22524;-28
2022/08/17 12:08:32;;;;;;;3.40;2.80;;;;;;;;;;108249;1302;23412;-24
2022/08/17 12:11:01;;;;;;;3.40;3.10;;;;;;;;;;108061;1309;23134;-28
2022/08/17 12:13:26;;;;;;;5.20;2.90;;;;;;;;;;108262;1308;23230;-28
2022/08/17 12:15:52;;;;;;;2.20;2.10;;;;;;;;;;108204;1303;22929;-28
2022/08/17 12:18:19;;;;;;;7.50;3.10;;;;;;;;;;108301;1305;25241;-28
2022/08/17 12:20:45;;;;;;;4.10;2.90;;;;;;;;;;108020;1302;22791;-24
2022/08/17 12:23:13;;;;;;;3.70;3.40;;;;;;;;;;107929;1302;23373;-24
2022/08/17 12:25:41;;;;;;;3.80;3.10;;;;;;;;;;108257;1302;22548;-25
2022/08/17 12:28:10;;;;;;;6.00;4.50;;;;;;;;;;108131;1308;22543;-28
2022/08/17 12:30:36;;;;;;;3.70;3.40;;;;;;;;;;108225;1302;23153;-28
2022/08/17 12:33:02;;;;;;;19.40;4.00;;;;;;;;;;108262;1308;22677;-24
2022/08/17 12:35:28;;;;;;;4.20;3.40;;;;;;;;;;108133;1309;22570;-24
2022/08/17 12:37:56;;;;;;;4.50;3.90;;;;;;;;;;108140;1309;22571;-24
2022/08/17 12:40:23;;;;;;;16.00;4.30;;;;;;;;;;108257;1302;22440;-23
2022/08/17 12:42:52;;;;;;;3.30;2.60;;;;;;;;;;108273;1301;23054;-24
2022/08/17 12:45:22;;;;;;;4.00;3.70;;;;;;;;;;108202;1302;23197;-24
2022/08/17 12:47:47;;;;;;;9.10;4.70;;;;;;;;;;108076;1301;25314;-24
2022/08/17 12:50:13;;;;;;;4.90;4.40;;;;;;;;;;108189;1301;22542;-24
2022/08/17 12:52:41;;;;;;;4.30;3.70;;;;;;;;;;108244;1302;23281;-28
2022/08/17 12:55:10;;;;;;;3.80;3.20;;;;;;;;;;108337;1301;22468;-28
2022/08/17 12:57:36;;;;;;;4.50;4.00;;;;;;;;;;107403;1308;1003363;-28
2022/08/17 13:00:05;;;;;;;3.60;3.20;;;;;;;;;;108263;1302;22796;-24
2022/08/17 13:02:34;;;;;;;6.30;3.30;;;;;;;;;;108189;1302;22788;-24
2022/08/17 13:05:00;;;;;;;3.70;3.40;;;;;;;;;;108272;1302;22418;-28
2022/08/17 13:07:27;;;;;;;12.00;3.40;;;;;;;;;;108253;1302;23223;-24
2022/08/17 13:09:52;;;;;;;4.10;3.60;;;;;;;;;;108377;1295;23230;-24
2022/08/17 13:12:24;;;;;;;3.40;3.20;;;;;;;;;;108013;1302;23169;-28
2022/08/17 13:14:49;;;;;;;;;;;;;;;;;;108045;1308;22590;-27
2022/08/17 13:17:15;;;;;;;2.90;2.50;;;;;;;;;;108309;1295;23384;-24
2022/08/17 13:19:46;;;;;;;4.90;4.40;;;;;;;;;;108200;1308;22540;-24
2022/08/17 13:22:12;;;;;;;3.30;3.00;;;;;;;;;;108205;1301;22641;-24
2022/08/17 13:24:38;;;;;;;4.20;3.50;;;;;;;;;;108243;1302;22645;-28
2022/08/17 13:27:06;;;;;;;4.40;4.00;;;;;;;;;;108272;1302;23112;-24
2022/08/17 13:29:34;;;;;;;4.70;4.10;;;;;;;;;;108031;1309;23204;-24
2022/08/17 13:32:03;;;;;;;6.60;4.30;;;;;;;;;;108105;1309;23271;-24
2022/08/17 13:34:29;;;;;;;9.20;3.50;;;;;;;;;;108285;1309;22558;-28
2022/08/17 13:36:58;;;;;;;5.80;5.30;;;;;;;;;;108298;1302;23170;-24
2022/08/17 13:39:23;;;;;;;4.80;4.40;;;;;;;;;;108291;1302;22581;-28
2022/08/17 13:41:49;;;;;;;8.70;4.00;;;;;;;;;;108230;1309;22512;-25
2022/08/17 13:44:18;;;;;;;4.10;3.70;;;;;;;;;;108231;1302;23134;-24
2022/08/17 13:46:49;;;;;;;3.30;3.00;;;;;;;;;;108292;1302;23792;-24
2022/08/17 13:49:14;;;;;;;3.70;3.40;;;;;;;;;;108198;1296;24030;-28
2022/08/17 13:51:41;;;;;;;3.40;3.00;;;;;;;;;;108246;1301;22534;-24
2022/08/17 13:54:16;;;;;;;4.50;4.10;;;;;;;;;;108283;1302;22496;-28
2022/08/17 13:56:53;;;;;;;4.40;3.30;;;;;;;;;;108241;1301;22507;-28
2022/08/17 13:59:22;;;;;;;2.60;2.40;;;;;;;;;;107225;1302;23647;-24
2022/08/17 14:01:47;;;;;;;2.80;2.50;;;;;;;;;;108259;1302;23256;-28
2022/08/17 14:04:14;;;;;;;3.80;3.50;;;;;;;;;;108277;1301;22352;-28
2022/08/17 14:06:43;;;;;;;5.40;4.40;;;;;;;;;;107968;1309;25244;-25
2022/08/17 14:09:08;;;;;;;3.40;2.80;;;;;;;;;;108109;1302;22547;-28
2022/08/17 14:11:34;;;;;;;4.60;3.20;;;;;;;;;;108257;1301;23092;-27
2022/08/17 14:14:00;;;;;;;4.70;3.40;;;;;;;;;;108251;1301;22458;-28
2022/08/17 14:16:25;;;;;;;2.80;2.60;;;;;;;;;;108259;1301;22863;-24
2022/08/17 14:18:51;;;;;;;5.00;3.90;;;;;;;;;;108260;1302;22517;-24
2022/08/17 14:21:16;;;;;;;2.80;2.50;;;;;;;;;;107933;1302;22543;-24
2022/08/17 14:23:42;;;;;;;3.80;3.40;;;;;;;;;;107724;1309;725398;-28
2022/08/17 14:26:08;;;;;;;4.00;3.60;;;;;;;;;;108176;1309;22522;-30
2022/08/17 14:28:33;;;;;;;3.90;3.40;;;;;;;;;;108228;1302;23102;-28
2022/08/17 14:30:59;;;;;;;4.00;3.70;;;;;;;;;;108261;1301;22503;-24
2022/08/17 14:33:24;;;;;;;3.20;2.90;;;;;;;;;;107543;1301;1002316;-28
2022/08/17 14:35:52;;;;;;;3.90;3.50;;;;;;;;;;108271;1301;23734;-28
2022/08/17 14:38:18;;;;;;;4.20;3.70;;;;;;;;;;108236;1302;22730;-24
2022/08/17 14:40:44;;;;;;;3.90;3.50;;;;;;;;;;108263;1305;23258;-24
2022/08/17 14:43:10;;;;;;;4.50;4.10;;;;;;;;;;108281;1308;22413;-25
2022/08/17 14:45:35;;;;;;;3.70;3.40;;;;;;;;;;108131;1308;22593;-24
2022/08/17 14:48:02;;;;;;;2.50;2.30;;;;;;;;;;108198;1301;23379;-24
2022/08/17 14:50:28;;;;;;;3.70;3.40;;;;;;;;;;108279;1302;23199;-24